Aviation Digital Data Service (ADDS)

Output produced by METARs form (1341 UTC 17 September 2019)
found at http://www.aviationweather.gov/metar/data/
 
VTCT 171300Z 29002KT 9999 SCT030 28/24 Q1009 NOSIG
VTCT 171200Z 00000KT 9999 VCTS FEW020CB SCT030 29/25 Q1008 NOSIG
VTCT 171100Z 07003KT 9999 FEW030 32/25 Q1007 NOSIG
VTCT 171000Z VRB02KT 9999 FEW030 33/24 Q1007 NOSIG
VTCT 170900Z VRB02KT 9999 FEW030 33/23 Q1007 NOSIG
VTCT 170800Z VRB02KT 9999 SCT030 34/23 Q1008 NOSIG
VTCT 170700Z 06003KT 9999 FEW025 33/24 Q1009 NOSIG
VTCT 170600Z 09004KT 9999 SCT025 32/24 Q1010 NOSIG
VTCT 170500Z 10004KT 9999 FEW020 32/25 Q1011 NOSIG
VTCT 170400Z VRB03KT 9999 FEW020 30/23 Q1012 NOSIG
VTCT 170300Z 05003KT 9999 FEW025 29/24 Q1012 NOSIG
VTCT 170200Z VRB02KT CAVOK 27/23 Q1012 NOSIG
VTCT 170100Z VRB02KT CAVOK 25/23 Q1012 NOSIG
VTCT 170000Z 00000KT CAVOK 23/23 Q1011 NOSIG
VTCT 162300Z 00000KT CAVOK 22/22 Q1010 NOSIG
VTCT 162200Z 00000KT CAVOK 23/23 Q1010 NOSIG
VTCT 162100Z 00000KT CAVOK 23/23 Q1010 NOSIG
VTCT 162000Z 00000KT CAVOK 23/23 Q1010 NOSIG
VTCT 161900Z 00000KT CAVOK 24/23 Q1010 NOSIG
VTCT 161800Z 00000KT CAVOK 24/23 Q1010 NOSIG
VTCT 161700Z 00000KT CAVOK 25/23 Q1009 NOSIG
VTCT 161600Z 00000KT CAVOK 25/23 Q1009 NOSIG
VTCT 161500Z 00000KT CAVOK 26/23 Q1009 NOSIG
VTCT 161400Z 27003KT CAVOK 26/25 Q1008 NOSIG
TAF VTCT 171100Z 1712/1818 07005KT 9999 FEW030 
     TEMPO 1805/1813 VRB15G25KT 4000 TSRA FEW020CB BKN025